Time;durP1;ratioP1;P1;durP2;ratioP2;P2;SDS_P1;SDS_P2;PMS_P1;PMS_P2;Temp;Humidity;BMP_temperature;BMP_pressure;BME280_temperature;BME280_humidity;BME280_pressure;Samples;Min_cycle;Max_cycle;Signal;HPM_P1;HPM_P2
2020/12/16 00:00:09;;;;;;;306.38;41.05;;;;;;;;;;5075663;28;20559;-66
2020/12/16 00:02:39;;;;;;;450.85;44.25;;;;;;;;;;5075476;28;20204;-66
2020/12/16 00:05:07;;;;;;;486.77;50.22;;;;;;;;;;5075404;28;20591;-66
2020/12/16 00:07:34;;;;;;;366.90;44.33;;;;;;;;;;5074252;28;20204;-66
2020/12/16 00:10:04;;;;;;;707.78;66.18;;;;;;;;;;5074763;28;20192;-67
2020/12/16 00:12:31;;;;;;;409.77;45.38;;;;;;;;;;5074863;28;20226;-66
2020/12/16 00:15:02;;;;;;;428.17;46.15;;;;;;;;;;5074906;28;20601;-66
2020/12/16 00:17:30;;;;;;;208.45;35.15;;;;;;;;;;5074620;28;20196;-66
2020/12/16 00:19:57;;;;;;;335.35;42.20;;;;;;;;;;5074846;28;20188;-66
2020/12/16 00:22:25;;;;;;;271.48;37.78;;;;;;;;;;5074681;28;20192;-66
2020/12/16 00:24:51;;;;;;;221.35;36.90;;;;;;;;;;5074754;28;20199;-66
2020/12/16 00:27:18;;;;;;;636.03;60.20;;;;;;;;;;5074829;28;20534;-66
2020/12/16 00:29:47;;;;;;;216.88;35.08;;;;;;;;;;5074215;28;20249;-66
2020/12/16 00:32:14;;;;;;;146.25;33.22;;;;;;;;;;5074377;28;20693;-66
2020/12/16 00:34:44;;;;;;;176.35;33.83;;;;;;;;;;5073202;28;20231;-66
2020/12/16 00:37:10;;;;;;;402.10;44.42;;;;;;;;;;5074847;28;20192;-66
2020/12/16 00:39:37;;;;;;;228.65;35.45;;;;;;;;;;5074104;28;20190;-66
2020/12/16 00:42:09;;;;;;;615.40;57.65;;;;;;;;;;5073962;28;20555;-67
2020/12/16 00:44:35;;;;;;;421.35;43.45;;;;;;;;;;5074286;28;20200;-66
2020/12/16 00:47:04;;;;;;;286.13;35.20;;;;;;;;;;5074205;28;20242;-66
2020/12/16 00:49:32;;;;;;;306.00;34.28;;;;;;;;;;5073896;28;20232;-66
2020/12/16 00:51:59;;;;;;;246.98;31.70;;;;;;;;;;5074309;28;20203;-66
2020/12/16 00:54:26;;;;;;;357.13;37.45;;;;;;;;;;5074357;28;20639;-66
2020/12/16 00:56:52;;;;;;;429.40;37.88;;;;;;;;;;5073914;28;20188;-66
2020/12/16 00:59:19;;;;;;;399.30;35.75;;;;;;;;;;5074119;28;20651;-66
2020/12/16 01:01:48;;;;;;;517.10;39.40;;;;;;;;;;5073793;28;20200;-66
2020/12/16 01:04:15;;;;;;;453.48;39.10;;;;;;;;;;5073857;28;20192;-66
2020/12/16 01:06:41;;;;;;;442.02;37.63;;;;;;;;;;5073563;28;20212;-66
2020/12/16 01:09:08;;;;;;;458.83;38.60;;;;;;;;;;5073842;28;20200;-65
2020/12/16 01:11:36;;;;;;;518.03;45.50;;;;;;;;;;5073921;28;20327;-65
2020/12/16 01:14:07;;;;;;;464.95;41.80;;;;;;;;;;5073894;28;20635;-66
2020/12/16 01:16:37;;;;;;;557.28;62.10;;;;;;;;;;5072349;28;20372;-66
2020/12/16 01:19:07;;;;;;;513.92;48.90;;;;;;;;;;5073555;28;20183;-66
2020/12/16 01:21:34;;;;;;;500.52;44.88;;;;;;;;;;5073331;28;20200;-66
2020/12/16 01:24:01;;;;;;;173.57;28.10;;;;;;;;;;5072457;28;20229;-65
2020/12/16 01:26:36;;;;;;;481.48;42.38;;;;;;;;;;5073656;28;20289;-66
2020/12/16 01:29:05;;;;;;;185.32;27.63;;;;;;;;;;5073542;28;20239;-66
2020/12/16 01:31:38;;;;;;;448.33;44.17;;;;;;;;;;5073853;28;20184;-65
2020/12/16 01:34:05;;;;;;;482.50;39.20;;;;;;;;;;5074410;28;20192;-66
2020/12/16 01:36:32;;;;;;;383.33;36.58;;;;;;;;;;5073795;28;20234;-66
2020/12/16 01:38:59;;;;;;;192.88;25.90;;;;;;;;;;5074008;28;20192;-65
2020/12/16 01:41:25;;;;;;;353.80;33.30;;;;;;;;;;5074152;28;20188;-66
2020/12/16 01:43:54;;;;;;;435.52;36.20;;;;;;;;;;5073808;28;20188;-66
2020/12/16 01:46:23;;;;;;;233.23;25.65;;;;;;;;;;5074195;28;20196;-66
2020/12/16 01:48:49;;;;;;;295.15;32.70;;;;;;;;;;5073303;28;20223;-66
2020/12/16 01:51:20;;;;;;;141.23;27.10;;;;;;;;;;5073322;28;20249;-66
2020/12/16 01:53:47;;;;;;;343.50;30.67;;;;;;;;;;5073599;28;20193;-66
2020/12/16 01:56:16;;;;;;;400.70;48.00;;;;;;;;;;5073538;28;20220;-66
2020/12/16 01:58:43;;;;;;;358.20;32.47;;;;;;;;;;5073671;28;20241;-66
2020/12/16 02:01:15;;;;;;;370.92;32.65;;;;;;;;;;5073633;28;20208;-66
2020/12/16 02:03:46;;;;;;;165.90;33.97;;;;;;;;;;5073384;28;20180;-67
2020/12/16 02:06:14;;;;;;;326.00;31.02;;;;;;;;;;5073724;28;20648;-66
2020/12/16 02:08:43;;;;;;;313.25;38.10;;;;;;;;;;5073480;28;20192;-66
2020/12/16 02:11:13;;;;;;;302.42;27.25;;;;;;;;;;5073354;28;20177;-66
2020/12/16 02:13:39;;;;;;;386.67;38.55;;;;;;;;;;5075614;28;20245;-66
2020/12/16 02:16:07;;;;;;;405.38;38.83;;;;;;;;;;5077287;28;20208;-66
2020/12/16 02:18:34;;;;;;;206.52;28.52;;;;;;;;;;5076210;28;20215;-66
2020/12/16 02:21:00;;;;;;;303.33;33.22;;;;;;;;;;5077119;28;20200;-66
2020/12/16 02:23:27;;;;;;;467.30;44.47;;;;;;;;;;5076868;28;20188;-66
2020/12/16 02:25:53;;;;;;;464.50;36.72;;;;;;;;;;5077369;28;20253;-66
2020/12/16 02:28:20;;;;;;;425.70;32.58;;;;;;;;;;5076733;28;20200;-66
2020/12/16 02:30:46;;;;;;;72.43;16.35;;;;;;;;;;5076593;28;20232;-66
2020/12/16 02:33:13;;;;;;;316.55;27.63;;;;;;;;;;5077277;28;20250;-66
2020/12/16 02:35:42;;;;;;;501.67;37.53;;;;;;;;;;5076255;28;20220;-66
2020/12/16 02:38:08;;;;;;;421.33;33.92;;;;;;;;;;5077306;28;20552;-66
2020/12/16 02:40:35;;;;;;;357.52;29.48;;;;;;;;;;5076825;28;20184;-66
2020/12/16 02:43:03;;;;;;;297.55;27.85;;;;;;;;;;5077184;28;20200;-65
2020/12/16 02:45:29;;;;;;;277.80;28.27;;;;;;;;;;5076683;28;20211;-66
2020/12/16 02:47:57;;;;;;;192.57;22.42;;;;;;;;;;5077326;28;20250;-65
2020/12/16 02:50:24;;;;;;;218.10;25.35;;;;;;;;;;5076529;28;20192;-65
2020/12/16 02:52:51;;;;;;;165.82;23.83;;;;;;;;;;5076621;28;20290;-65
2020/12/16 02:55:17;;;;;;;66.95;19.58;;;;;;;;;;5076253;28;20239;-65
2020/12/16 02:57:44;;;;;;;56.95;18.60;;;;;;;;;;5076497;28;20762;-65
2020/12/16 03:00:10;;;;;;;57.08;17.83;;;;;;;;;;5075277;28;20203;-65
2020/12/16 03:02:37;;;;;;;56.53;16.67;;;;;;;;;;5076361;28;20647;-65
2020/12/16 03:05:04;;;;;;;57.33;17.25;;;;;;;;;;5075938;28;20196;-65
2020/12/16 03:07:34;;;;;;;50.08;17.40;;;;;;;;;;5076392;28;20227;-65
2020/12/16 03:10:00;;;;;;;51.63;18.48;;;;;;;;;;5076073;28;20211;-65
2020/12/16 03:12:27;;;;;;;47.13;17.95;;;;;;;;;;5076403;28;20619;-65
2020/12/16 03:14:55;;;;;;;46.72;17.42;;;;;;;;;;5076304;28;20257;-65
2020/12/16 03:17:22;;;;;;;43.58;17.02;;;;;;;;;;5075992;28;20266;-65
2020/12/16 03:19:49;;;;;;;54.55;19.65;;;;;;;;;;5075893;28;20195;-65
2020/12/16 03:22:16;;;;;;;50.55;18.27;;;;;;;;;;5075800;28;20261;-65
2020/12/16 03:24:42;;;;;;;48.35;17.05;;;;;;;;;;5075446;28;20188;-65
2020/12/16 03:27:09;;;;;;;47.47;17.08;;;;;;;;;;5075608;28;20203;-65
2020/12/16 03:29:36;;;;;;;44.80;17.23;;;;;;;;;;5075549;28;20231;-65
2020/12/16 03:32:02;;;;;;;48.88;16.65;;;;;;;;;;5075515;28;20700;-66
2020/12/16 03:34:34;;;;;;;49.28;16.45;;;;;;;;;;5075822;28;20180;-66
2020/12/16 03:37:01;;;;;;;51.78;16.15;;;;;;;;;;5075372;28;20223;-66
2020/12/16 03:39:27;;;;;;;47.92;16.48;;;;;;;;;;5075633;28;20564;-66
2020/12/16 03:41:54;;;;;;;60.97;19.60;;;;;;;;;;5075224;28;20191;-66
2020/12/16 03:44:23;;;;;;;64.05;16.10;;;;;;;;;;5075306;28;20188;-66
2020/12/16 03:46:51;;;;;;;68.82;18.52;;;;;;;;;;5075627;28;20184;-66
2020/12/16 03:49:18;;;;;;;60.00;17.73;;;;;;;;;;5075306;28;20227;-66
2020/12/16 03:52:02;;;;;;;84.82;19.70;;;;;;;;;;5075571;28;20230;-66
2020/12/16 03:54:29;;;;;;;82.05;17.45;;;;;;;;;;5075469;28;20626;-66
2020/12/16 03:56:56;;;;;;;84.00;19.00;;;;;;;;;;5075028;28;20684;-66
2020/12/16 03:59:23;;;;;;;84.63;18.20;;;;;;;;;;5075094;28;20185;-66
2020/12/16 04:01:51;;;;;;;93.90;18.58;;;;;;;;;;5074682;28;20193;-66
2020/12/16 04:04:19;;;;;;;72.38;17.30;;;;;;;;;;5075024;28;20230;-66
2020/12/16 04:06:46;;;;;;;63.95;19.02;;;;;;;;;;5074986;28;20196;-66
2020/12/16 04:09:13;;;;;;;50.50;17.50;;;;;;;;;;5075240;28;20203;-66
2020/12/16 04:11:39;;;;;;;52.08;16.13;;;;;;;;;;5074842;28;20195;-66
2020/12/16 04:14:06;;;;;;;42.10;15.50;;;;;;;;;;5073719;28;20207;-66
2020/12/16 04:16:32;;;;;;;46.80;17.30;;;;;;;;;;5073544;28;20223;-66
2020/12/16 04:18:59;;;;;;;45.45;17.83;;;;;;;;;;5074870;28;20670;-66
2020/12/16 04:21:25;;;;;;;48.45;17.17;;;;;;;;;;5074385;28;20184;-66
2020/12/16 04:23:52;;;;;;;51.58;18.85;;;;;;;;;;5074667;28;20192;-66
2020/12/16 04:26:24;;;;;;;41.33;16.65;;;;;;;;;;5074578;28;20200;-66
2020/12/16 04:28:50;;;;;;;49.00;16.15;;;;;;;;;;5074438;28;20651;-66
2020/12/16 04:31:17;;;;;;;49.38;17.60;;;;;;;;;;5075061;28;20176;-66
2020/12/16 04:33:44;;;;;;;49.88;18.17;;;;;;;;;;5074831;28;20192;-66
2020/12/16 04:36:10;;;;;;;56.40;16.60;;;;;;;;;;5074515;28;20230;-66
2020/12/16 04:38:37;;;;;;;50.45;16.77;;;;;;;;;;5074565;28;20199;-66
2020/12/16 04:41:07;;;;;;;46.47;18.77;;;;;;;;;;5072869;28;20192;-66
2020/12/16 04:43:39;;;;;;;46.55;17.48;;;;;;;;;;5074180;28;20191;-66
2020/12/16 04:46:06;;;;;;;40.42;15.82;;;;;;;;;;5074326;28;20187;-66
2020/12/16 04:48:35;;;;;;;46.85;16.27;;;;;;;;;;5074214;28;20224;-66
2020/12/16 04:51:02;;;;;;;42.78;16.30;;;;;;;;;;5072876;28;20204;-66
2020/12/16 04:53:28;;;;;;;46.50;18.48;;;;;;;;;;5074015;28;20238;-66
2020/12/16 04:55:58;;;;;;;43.30;17.83;;;;;;;;;;5072997;28;20211;-66
2020/12/16 04:58:25;;;;;;;43.13;16.38;;;;;;;;;;5074159;28;20223;-66
2020/12/16 05:00:51;;;;;;;50.40;17.85;;;;;;;;;;5073730;28;20188;-66
2020/12/16 05:03:19;;;;;;;50.00;19.00;;;;;;;;;;5073970;28;20192;-66
2020/12/16 05:05:47;;;;;;;41.30;17.40;;;;;;;;;;5073736;28;20208;-66
2020/12/16 05:08:14;;;;;;;46.40;18.85;;;;;;;;;;5073825;28;20666;-66
2020/12/16 05:10:42;;;;;;;67.15;19.38;;;;;;;;;;5073801;28;20187;-66
2020/12/16 05:13:11;;;;;;;47.42;18.83;;;;;;;;;;5074068;28;20253;-66
2020/12/16 05:15:38;;;;;;;36.90;14.90;;;;;;;;;;5073699;28;20215;-66
2020/12/16 05:18:09;;;;;;;45.20;15.15;;;;;;;;;;5073724;28;20196;-66
2020/12/16 05:20:38;;;;;;;31.27;14.40;;;;;;;;;;5074376;28;20195;-66
2020/12/16 05:23:07;;;;;;;35.22;15.25;;;;;;;;;;5073618;28;20200;-66
2020/12/16 05:25:36;;;;;;;34.47;14.55;;;;;;;;;;5073452;28;20238;-66
2020/12/16 05:28:05;;;;;;;45.33;15.10;;;;;;;;;;5073594;28;20188;-66
2020/12/16 05:30:34;;;;;;;37.08;14.60;;;;;;;;;;5073224;28;20235;-66
2020/12/16 05:33:01;;;;;;;42.15;15.23;;;;;;;;;;5073968;28;20245;-66
2020/12/16 05:35:30;;;;;;;43.30;17.25;;;;;;;;;;5072971;28;20204;-66
2020/12/16 05:38:01;;;;;;;36.78;16.05;;;;;;;;;;5073531;28;20204;-66
2020/12/16 05:40:29;;;;;;;32.95;15.93;;;;;;;;;;5073329;28;20194;-66
2020/12/16 05:42:56;;;;;;;40.47;17.75;;;;;;;;;;5073425;28;20199;-66
2020/12/16 05:45:27;;;;;;;37.13;16.83;;;;;;;;;;5073580;28;20636;-66
2020/12/16 05:47:57;;;;;;;40.50;18.52;;;;;;;;;;5074657;28;20216;-66
2020/12/16 05:50:30;;;;;;;40.53;18.95;;;;;;;;;;5077258;28;20206;-67
2020/12/16 05:53:08;;;;;;;34.92;19.50;;;;;;;;;;5077288;28;20187;-67
2020/12/16 05:55:35;;;;;;;36.03;18.25;;;;;;;;;;5077241;28;20655;-66
2020/12/16 05:58:11;;;;;;;30.70;16.70;;;;;;;;;;5077283;28;20705;-67
2020/12/16 06:00:47;;;;;;;42.08;18.20;;;;;;;;;;5059465;28;20245;-67
2020/12/16 06:03:24;;;;;;;36.53;18.80;;;;;;;;;;5077131;28;20183;-66
2020/12/16 06:05:54;;;;;;;37.72;20.65;;;;;;;;;;5077452;28;20565;-67
2020/12/16 06:08:21;;;;;;;46.97;20.45;;;;;;;;;;5077356;28;20507;-67
2020/12/16 06:10:49;;;;;;;73.55;28.50;;;;;;;;;;5076863;28;20192;-67
2020/12/16 06:13:17;;;;;;;132.25;52.50;;;;;;;;;;5076774;28;20204;-67
2020/12/16 06:15:52;;;;;;;91.00;40.75;;;;;;;;;;5075609;28;20220;-67
2020/12/16 06:18:19;;;;;;;54.95;25.02;;;;;;;;;;5075560;28;20203;-67
2020/12/16 06:20:46;;;;;;;56.53;22.98;;;;;;;;;;5077279;28;20289;-66
2020/12/16 06:23:21;;;;;;;40.42;18.88;;;;;;;;;;5076847;28;20563;-67
2020/12/16 06:25:52;;;;;;;37.92;19.17;;;;;;;;;;5076926;28;20218;-67
2020/12/16 06:28:18;;;;;;;46.40;20.20;;;;;;;;;;5077105;28;20207;-66
2020/12/16 06:30:54;;;;;;;39.17;19.20;;;;;;;;;;5076619;28;20243;-66
2020/12/16 06:33:24;;;;;;;59.80;27.15;;;;;;;;;;5076502;28;20207;-66
2020/12/16 06:35:56;;;;;;;50.15;22.35;;;;;;;;;;5076469;28;20215;-64
2020/12/16 06:38:23;;;;;;;49.22;19.80;;;;;;;;;;5076159;28;20648;-65
2020/12/16 06:40:56;;;;;;;48.10;21.10;;;;;;;;;;5076377;28;20192;-65
2020/12/16 06:43:28;;;;;;;48.10;19.80;;;;;;;;;;5076870;28;20207;-65
2020/12/16 06:45:55;;;;;;;51.05;19.05;;;;;;;;;;5075238;28;20663;-65
2020/12/16 06:48:38;;;;;;;47.08;20.98;;;;;;;;;;5076426;28;20215;-65
2020/12/16 06:51:22;;;;;;;56.70;20.60;;;;;;;;;;5076581;28;20229;-66
2020/12/16 06:53:50;;;;;;;52.08;22.73;;;;;;;;;;5076373;28;20564;-65
2020/12/16 06:56:20;;;;;;;61.13;22.20;;;;;;;;;;5076745;28;20212;-65
2020/12/16 06:58:46;;;;;;;61.03;21.50;;;;;;;;;;5075735;28;20627;-65
2020/12/16 07:01:14;;;;;;;55.42;23.05;;;;;;;;;;5076814;28;20195;-65
2020/12/16 07:03:43;;;;;;;60.28;22.30;;;;;;;;;;5077099;28;20196;-65
2020/12/16 07:06:13;;;;;;;67.38;24.27;;;;;;;;;;5076568;28;20206;-65
2020/12/16 07:08:43;;;;;;;64.15;22.20;;;;;;;;;;5076229;28;20211;-65
2020/12/16 07:11:09;;;;;;;54.63;22.92;;;;;;;;;;5076203;28;20192;-65
2020/12/16 07:13:37;;;;;;;53.70;20.40;;;;;;;;;;5076188;28;20204;-65
2020/12/16 07:16:10;;;;;;;58.17;22.60;;;;;;;;;;5076102;28;20233;-66
2020/12/16 07:18:40;;;;;;;52.70;20.60;;;;;;;;;;5075697;28;20196;-65
2020/12/16 07:21:09;;;;;;;60.72;22.45;;;;;;;;;;5076053;28;20639;-65
2020/12/16 07:23:46;;;;;;;65.28;24.95;;;;;;;;;;5076423;28;20192;-65
2020/12/16 07:26:17;;;;;;;54.85;22.90;;;;;;;;;;5076046;28;20279;-65
2020/12/16 07:28:44;;;;;;;58.55;21.00;;;;;;;;;;5075808;28;20248;-65
2020/12/16 07:31:11;;;;;;;62.17;24.00;;;;;;;;;;5076036;28;20555;-65
2020/12/16 07:33:37;;;;;;;49.05;21.83;;;;;;;;;;5074074;28;20200;-65
2020/12/16 07:36:05;;;;;;;51.10;22.75;;;;;;;;;;5075911;28;20215;-67
2020/12/16 07:38:35;;;;;;;57.20;23.60;;;;;;;;;;5074246;28;20224;-66
2020/12/16 07:41:04;;;;;;;71.15;23.90;;;;;;;;;;5075821;28;20184;-66
2020/12/16 07:43:31;;;;;;;56.92;22.13;;;;;;;;;;5075745;28;20561;-71
2020/12/16 07:46:05;;;;;;;62.90;28.55;;;;;;;;;;5074633;28;20746;-66
2020/12/16 07:48:36;;;;;;;54.00;23.92;;;;;;;;;;5075384;28;20629;-66
2020/12/16 07:51:08;;;;;;;47.10;21.30;;;;;;;;;;5075478;28;20202;-66
2020/12/16 07:53:35;;;;;;;48.40;22.05;;;;;;;;;;5075059;28;20212;-66
2020/12/16 07:56:04;;;;;;;53.08;24.13;;;;;;;;;;5075277;28;20234;-66
2020/12/16 07:58:31;;;;;;;53.63;23.85;;;;;;;;;;5075299;28;20184;-66
2020/12/16 08:01:08;;;;;;;41.42;20.15;;;;;;;;;;5075275;28;20196;-66
2020/12/16 08:03:36;;;;;;;42.80;20.25;;;;;;;;;;5075536;28;20191;-66
2020/12/16 08:06:03;;;;;;;38.58;18.33;;;;;;;;;;5075548;28;20192;-66
2020/12/16 08:08:32;;;;;;;35.50;19.02;;;;;;;;;;5075297;28;20632;-66
2020/12/16 08:10:58;;;;;;;29.52;17.23;;;;;;;;;;5073998;28;20250;-66
2020/12/16 08:13:28;;;;;;;44.75;22.13;;;;;;;;;;5074585;28;20198;-66
2020/12/16 08:16:06;;;;;;;51.75;22.60;;;;;;;;;;5074655;28;20215;-65
2020/12/16 08:18:33;;;;;;;49.67;22.85;;;;;;;;;;5075060;28;20644;-65
2020/12/16 08:21:01;;;;;;;56.25;22.92;;;;;;;;;;5074598;28;20203;-65
2020/12/16 08:23:30;;;;;;;59.35;23.15;;;;;;;;;;5074636;28;20651;-65
2020/12/16 08:26:03;;;;;;;73.47;25.10;;;;;;;;;;5074707;28;20196;-65
2020/12/16 08:28:30;;;;;;;61.80;21.92;;;;;;;;;;5075021;28;20208;-65
2020/12/16 08:30:58;;;;;;;65.25;22.70;;;;;;;;;;5074607;28;20582;-65
2020/12/16 08:33:27;;;;;;;67.43;23.27;;;;;;;;;;5074503;28;20195;-65
2020/12/16 08:35:57;;;;;;;56.10;24.85;;;;;;;;;;5074821;28;20200;-65
2020/12/16 08:38:27;;;;;;;54.67;24.45;;;;;;;;;;5074667;28;20212;-65
2020/12/16 08:40:56;;;;;;;55.20;25.08;;;;;;;;;;5074699;28;20556;-65
2020/12/16 08:43:24;;;;;;;62.92;23.35;;;;;;;;;;5074318;28;20208;-65
2020/12/16 08:46:00;;;;;;;56.70;25.58;;;;;;;;;;5074216;28;20200;-65
2020/12/16 08:48:39;;;;;;;56.53;23.35;;;;;;;;;;5074147;28;20220;-67
2020/12/16 08:51:06;;;;;;;56.85;24.38;;;;;;;;;;5074091;28;20281;-66
2020/12/16 08:53:48;;;;;;;60.45;26.70;;;;;;;;;;5074096;28;20226;-66
2020/12/16 08:56:22;;;;;;;58.28;22.90;;;;;;;;;;5073576;28;20701;-66
2020/12/16 08:58:59;;;;;;;69.32;27.58;;;;;;;;;;5074204;28;20236;-66
2020/12/16 09:01:27;;;;;;;61.10;27.17;;;;;;;;;;5068530;28;20275;-66
2020/12/16 09:03:53;;;;;;;59.45;28.35;;;;;;;;;;5053400;28;20205;-66
2020/12/16 09:06:20;;;;;;;68.35;27.75;;;;;;;;;;5057122;28;20193;-66
2020/12/16 09:08:50;;;;;;;67.72;27.88;;;;;;;;;;5068434;28;20199;-66
2020/12/16 09:11:22;;;;;;;61.85;27.65;;;;;;;;;;5059295;28;20542;-66
2020/12/16 09:13:51;;;;;;;60.28;25.05;;;;;;;;;;5073046;28;20203;-66
2020/12/16 09:16:27;;;;;;;62.88;27.25;;;;;;;;;;5059732;28;20236;-66
2020/12/16 09:18:54;;;;;;;57.35;24.63;;;;;;;;;;5052259;28;20199;-66
2020/12/16 09:21:34;;;;;;;57.05;24.05;;;;;;;;;;5066021;28;20191;-66
2020/12/16 09:24:01;;;;;;;52.70;23.90;;;;;;;;;;5059587;28;20184;-65
2020/12/16 09:26:34;;;;;;;46.20;20.92;;;;;;;;;;5071932;28;20200;-66
2020/12/16 09:29:25;;;;;;;48.55;23.05;;;;;;;;;;5072804;28;20227;-66
2020/12/16 09:32:11;;;;;;;49.95;22.70;;;;;;;;;;5073173;28;20210;-66
2020/12/16 09:34:40;;;;;;;41.67;20.23;;;;;;;;;;5055295;28;20211;-66
2020/12/16 09:37:23;;;;;;;53.20;22.67;;;;;;;;;;5073618;28;20223;-66
2020/12/16 09:39:51;;;;;;;49.25;22.02;;;;;;;;;;5073345;28;20184;-65
2020/12/16 09:42:18;;;;;;;65.97;23.02;;;;;;;;;;5072295;28;20286;-66
2020/12/16 09:44:45;;;;;;;47.85;21.13;;;;;;;;;;5073674;28;20207;-66
2020/12/16 09:47:22;;;;;;;42.95;19.85;;;;;;;;;;5073812;28;20184;-66
2020/12/16 09:50:03;;;;;;;43.03;20.60;;;;;;;;;;5072957;28;20199;-66
2020/12/16 09:52:32;;;;;;;37.95;18.63;;;;;;;;;;5073372;28;20203;-66
2020/12/16 09:55:20;;;;;;;35.10;18.13;;;;;;;;;;5073318;28;20614;-67
2020/12/16 09:58:01;;;;;;;38.25;19.10;;;;;;;;;;5073117;28;20216;-66
2020/12/16 10:00:29;;;;;;;36.85;19.77;;;;;;;;;;5073409;28;20203;-66
2020/12/16 10:02:57;;;;;;;37.08;18.70;;;;;;;;;;5073232;28;20215;-66
2020/12/16 10:05:24;;;;;;;42.28;20.75;;;;;;;;;;5073425;28;20546;-66
2020/12/16 10:07:52;;;;;;;46.78;22.15;;;;;;;;;;5073247;28;20579;-64
2020/12/16 10:10:22;;;;;;;43.28;20.20;;;;;;;;;;5073073;28;20192;-64
2020/12/16 10:12:50;;;;;;;39.85;18.38;;;;;;;;;;5073079;28;20661;-64
2020/12/16 10:15:17;;;;;;;38.38;20.67;;;;;;;;;;5073394;28;20566;-63
2020/12/16 10:17:45;;;;;;;38.45;19.35;;;;;;;;;;5073144;28;20589;-63
2020/12/16 10:20:12;;;;;;;28.50;17.83;;;;;;;;;;5073318;28;20219;-63
2020/12/16 10:22:41;;;;;;;29.23;17.80;;;;;;;;;;5073292;28;20674;-63
2020/12/16 10:25:08;;;;;;;34.35;18.02;;;;;;;;;;5072959;28;20208;-64
2020/12/16 10:27:39;;;;;;;26.52;17.55;;;;;;;;;;5073113;28;20192;-63
2020/12/16 10:30:06;;;;;;;26.13;15.98;;;;;;;;;;5072837;28;20236;-64
2020/12/16 10:32:38;;;;;;;24.95;16.05;;;;;;;;;;5072931;28;20227;-64
2020/12/16 10:35:04;;;;;;;33.60;19.00;;;;;;;;;;5074359;28;20281;-64
2020/12/16 10:37:33;;;;;;;30.08;17.00;;;;;;;;;;5076241;28;20247;-64
2020/12/16 10:40:03;;;;;;;30.52;19.48;;;;;;;;;;5075524;28;20196;-63
2020/12/16 10:42:32;;;;;;;32.95;20.23;;;;;;;;;;5076650;28;20542;-64
2020/12/16 10:44:59;;;;;;;29.52;19.70;;;;;;;;;;5077006;28;20622;-64
2020/12/16 10:47:26;;;;;;;29.30;21.05;;;;;;;;;;5076970;28;20200;-64
2020/12/16 10:49:54;;;;;;;28.20;19.20;;;;;;;;;;5076512;28;20258;-64
2020/12/16 10:52:21;;;;;;;31.27;19.75;;;;;;;;;;5074820;28;20608;-64
2020/12/16 10:54:48;;;;;;;33.28;19.73;;;;;;;;;;5075313;28;20226;-64
2020/12/16 10:57:16;;;;;;;31.50;20.88;;;;;;;;;;5076051;28;20204;-64
2020/12/16 10:59:43;;;;;;;33.20;21.17;;;;;;;;;;5076072;28;20180;-64
2020/12/16 11:02:09;;;;;;;32.80;18.42;;;;;;;;;;5076617;28;20203;-64
2020/12/16 11:04:36;;;;;;;29.45;20.00;;;;;;;;;;5076303;28;20196;-65
2020/12/16 11:07:04;;;;;;;35.60;20.20;;;;;;;;;;5076137;28;20204;-65
2020/12/16 11:09:31;;;;;;;46.70;22.75;;;;;;;;;;5075789;28;20198;-65
2020/12/16 11:11:59;;;;;;;51.53;21.88;;;;;;;;;;5076186;28;20245;-65
2020/12/16 11:14:25;;;;;;;69.15;23.30;;;;;;;;;;5076356;28;20210;-64
2020/12/16 11:16:58;;;;;;;108.30;23.95;;;;;;;;;;5075704;28;20220;-64
2020/12/16 11:19:25;;;;;;;56.25;22.58;;;;;;;;;;5076099;28;20592;-64
2020/12/16 11:21:53;;;;;;;103.63;23.52;;;;;;;;;;5075777;28;20192;-65
2020/12/16 11:24:21;;;;;;;49.50;24.33;;;;;;;;;;5075682;28;20219;-65
2020/12/16 11:26:49;;;;;;;96.47;25.17;;;;;;;;;;5075773;28;20198;-64
2020/12/16 11:29:16;;;;;;;70.97;24.58;;;;;;;;;;5076170;28;20228;-64
2020/12/16 11:31:50;;;;;;;111.72;25.67;;;;;;;;;;5076010;28;20200;-64
2020/12/16 11:34:20;;;;;;;43.42;23.80;;;;;;;;;;5075604;28;20203;-65
2020/12/16 11:36:48;;;;;;;42.10;23.10;;;;;;;;;;5074244;28;20230;-65
2020/12/16 11:39:18;;;;;;;43.75;22.55;;;;;;;;;;5075379;28;20542;-65
2020/12/16 11:41:46;;;;;;;58.70;25.48;;;;;;;;;;5075339;28;20194;-65
2020/12/16 11:44:21;;;;;;;96.45;25.60;;;;;;;;;;5075403;28;20188;-65
2020/12/16 11:46:48;;;;;;;73.30;24.67;;;;;;;;;;5075473;28;20190;-65
2020/12/16 11:49:15;;;;;;;128.45;26.10;;;;;;;;;;5075029;28;20215;-65
2020/12/16 11:51:44;;;;;;;145.38;28.27;;;;;;;;;;5075013;28;20298;-65
2020/12/16 11:54:11;;;;;;;50.97;25.40;;;;;;;;;;5074853;28;20211;-65
2020/12/16 11:56:38;;;;;;;42.78;24.33;;;;;;;;;;5075641;28;20212;-65
2020/12/16 11:59:05;;;;;;;46.33;26.88;;;;;;;;;;5075209;28;20215;-65
2020/12/16 12:01:33;;;;;;;59.03;24.95;;;;;;;;;;5074870;28;20212;-65
2020/12/16 12:04:00;;;;;;;43.90;24.40;;;;;;;;;;5075305;28;20595;-65
2020/12/16 12:06:28;;;;;;;44.83;25.50;;;;;;;;;;5073510;28;20719;-64
2020/12/16 12:08:54;;;;;;;46.40;26.60;;;;;;;;;;5075109;28;20290;-65
2020/12/16 12:11:21;;;;;;;50.00;29.38;;;;;;;;;;5075128;28;20199;-65
2020/12/16 12:13:48;;;;;;;54.35;27.67;;;;;;;;;;5074625;28;20192;-65
2020/12/16 12:16:17;;;;;;;44.30;26.55;;;;;;;;;;5074717;28;20316;-65
2020/12/16 12:18:47;;;;;;;41.17;24.00;;;;;;;;;;5074404;28;20250;-65
2020/12/16 12:21:18;;;;;;;36.42;22.92;;;;;;;;;;5074489;28;20196;-65
2020/12/16 12:23:45;;;;;;;35.78;22.48;;;;;;;;;;5074940;28;20208;-65
2020/12/16 12:26:15;;;;;;;39.00;24.33;;;;;;;;;;5074524;28;20275;-65
2020/12/16 12:28:41;;;;;;;38.33;23.40;;;;;;;;;;5074078;28;20214;-65
2020/12/16 12:31:10;;;;;;;35.60;23.25;;;;;;;;;;5074344;28;20253;-65
2020/12/16 12:33:36;;;;;;;42.55;24.05;;;;;;;;;;5074786;28;20199;-65
2020/12/16 12:36:03;;;;;;;35.42;22.35;;;;;;;;;;5074398;28;20577;-64
2020/12/16 12:38:30;;;;;;;46.03;22.92;;;;;;;;;;5074243;28;20293;-64
2020/12/16 12:40:56;;;;;;;50.83;23.23;;;;;;;;;;5074618;28;20650;-64
2020/12/16 12:43:23;;;;;;;51.03;22.20;;;;;;;;;;5074327;28;20200;-64
2020/12/16 12:45:50;;;;;;;43.25;23.35;;;;;;;;;;5074089;28;20210;-65
2020/12/16 12:48:16;;;;;;;43.70;27.80;;;;;;;;;;5074714;28;20687;-65
2020/12/16 12:50:43;;;;;;;40.40;25.65;;;;;;;;;;5074169;28;20208;-64
2020/12/16 12:53:12;;;;;;;40.05;24.05;;;;;;;;;;5074518;28;20225;-65
2020/12/16 12:55:38;;;;;;;37.38;24.00;;;;;;;;;;5074597;28;20553;-66
2020/12/16 12:58:06;;;;;;;37.50;23.67;;;;;;;;;;5072782;28;20223;-65
2020/12/16 13:00:34;;;;;;;41.28;24.67;;;;;;;;;;5074690;28;20191;-65
2020/12/16 13:03:01;;;;;;;38.20;24.67;;;;;;;;;;5074396;28;20204;-65
2020/12/16 13:05:28;;;;;;;40.38;25.58;;;;;;;;;;5074073;28;20736;-65
2020/12/16 13:07:55;;;;;;;39.72;23.02;;;;;;;;;;5073773;28;20598;-65
2020/12/16 13:10:24;;;;;;;31.63;21.00;;;;;;;;;;5074142;28;20669;-65
2020/12/16 13:12:51;;;;;;;33.28;22.92;;;;;;;;;;5074023;28;20195;-63
2020/12/16 13:15:18;;;;;;;36.67;23.40;;;;;;;;;;5074139;28;20191;-64
2020/12/16 13:17:46;;;;;;;42.25;25.35;;;;;;;;;;5074723;28;20223;-64
2020/12/16 13:20:16;;;;;;;39.75;24.20;;;;;;;;;;5073991;28;20673;-64
2020/12/16 13:22:43;;;;;;;40.20;23.25;;;;;;;;;;5074062;28;20203;-64
2020/12/16 13:25:10;;;;;;;43.50;24.45;;;;;;;;;;5074032;28;20202;-64
2020/12/16 13:27:37;;;;;;;59.45;26.42;;;;;;;;;;5073904;28;20214;-64
2020/12/16 13:30:06;;;;;;;51.72;26.50;;;;;;;;;;5073541;28;20231;-65
2020/12/16 13:32:33;;;;;;;37.30;25.63;;;;;;;;;;5073533;28;20198;-64
2020/12/16 13:35:01;;;;;;;59.53;33.58;;;;;;;;;;5073735;28;20647;-64
2020/12/16 13:37:28;;;;;;;62.15;27.92;;;;;;;;;;5074017;28;20250;-64
2020/12/16 13:39:56;;;;;;;46.03;26.83;;;;;;;;;;5073393;28;20204;-64
2020/12/16 13:42:24;;;;;;;40.70;26.45;;;;;;;;;;5073056;28;20200;-64
2020/12/16 13:44:50;;;;;;;42.97;27.20;;;;;;;;;;5072933;28;20655;-64
2020/12/16 13:47:19;;;;;;;47.47;28.63;;;;;;;;;;5073078;28;20204;-64
2020/12/16 13:49:46;;;;;;;44.92;27.65;;;;;;;;;;5073152;28;20648;-65
2020/12/16 13:52:14;;;;;;;37.70;26.80;;;;;;;;;;5073473;28;20218;-65
2020/12/16 13:54:41;;;;;;;42.60;27.50;;;;;;;;;;5073093;28;20184;-64
2020/12/16 13:57:08;;;;;;;49.92;29.50;;;;;;;;;;5071613;28;20223;-64
2020/12/16 13:59:36;;;;;;;50.05;27.98;;;;;;;;;;5073875;28;20538;-64
2020/12/16 14:02:03;;;;;;;44.33;25.27;;;;;;;;;;5071760;28;20503;-64
2020/12/16 14:04:30;;;;;;;40.55;24.33;;;;;;;;;;5073199;28;20196;-64
2020/12/16 14:06:57;;;;;;;40.33;25.73;;;;;;;;;;5073432;28;20188;-64
2020/12/16 14:09:23;;;;;;;49.05;29.85;;;;;;;;;;5075144;28;20552;-65
2020/12/16 14:11:59;;;;;;;46.50;27.17;;;;;;;;;;5076855;28;20202;-64
2020/12/16 14:14:27;;;;;;;44.80;29.73;;;;;;;;;;5076710;28;20200;-67
2020/12/16 14:16:54;;;;;;;42.50;26.70;;;;;;;;;;5076938;28;20214;-64
2020/12/16 14:19:20;;;;;;;43.65;27.70;;;;;;;;;;5075595;28;20573;-64
2020/12/16 14:21:47;;;;;;;48.60;27.98;;;;;;;;;;5074969;28;20218;-69